sensor_id;sensor_type;location;lat;lon;timestamp;P1;durP1;ratioP1;P2;durP2;ratioP2
4601;SDS011;2313;48.552;9.370;2022-07-05T00:00:39;2.10;;;1.90;;
4601;SDS011;2313;48.552;9.370;2022-07-05T00:03:05;3.13;;;2.30;;
4601;SDS011;2313;48.552;9.370;2022-07-05T00:05:31;1.70;;;1.50;;
4601;SDS011;2313;48.552;9.370;2022-07-05T00:07:57;8.40;;;2.47;;
4601;SDS011;2313;48.552;9.370;2022-07-05T00:10:22;1.60;;;1.50;;
4601;SDS011;2313;48.552;9.370;2022-07-05T00:12:48;3.33;;;2.40;;
4601;SDS011;2313;48.552;9.370;2022-07-05T00:15:14;1.97;;;1.77;;
4601;SDS011;2313;48.552;9.370;2022-07-05T00:17:39;4.83;;;2.20;;
4601;SDS011;2313;48.552;9.370;2022-07-05T00:20:05;2.67;;;1.60;;
4601;SDS011;2313;48.552;9.370;2022-07-05T00:22:32;4.00;;;2.47;;
4601;SDS011;2313;48.552;9.370;2022-07-05T00:24:57;2.10;;;1.73;;
4601;SDS011;2313;48.552;9.370;2022-07-05T00:27:23;3.50;;;2.47;;
4601;SDS011;2313;48.552;9.370;2022-07-05T00:29:49;6.07;;;1.80;;
4601;SDS011;2313;48.552;9.370;2022-07-05T00:32:14;2.30;;;2.10;;
4601;SDS011;2313;48.552;9.370;2022-07-05T00:34:40;3.60;;;2.73;;
4601;SDS011;2313;48.552;9.370;2022-07-05T00:37:05;2.60;;;2.20;;
4601;SDS011;2313;48.552;9.370;2022-07-05T00:39:31;2.57;;;2.37;;
4601;SDS011;2313;48.552;9.370;2022-07-05T00:41:57;2.70;;;2.50;;
4601;SDS011;2313;48.552;9.370;2022-07-05T00:44:44;3.10;;;2.40;;
4601;SDS011;2313;48.552;9.370;2022-07-05T00:47:09;9.57;;;2.40;;
4601;SDS011;2313;48.552;9.370;2022-07-05T00:49:36;3.33;;;2.30;;
4601;SDS011;2313;48.552;9.370;2022-07-05T00:52:03;3.87;;;2.50;;
4601;SDS011;2313;48.552;9.370;2022-07-05T00:54:32;3.30;;;2.60;;
4601;SDS011;2313;48.552;9.370;2022-07-05T00:56:59;2.63;;;2.43;;
4601;SDS011;2313;48.552;9.370;2022-07-05T00:59:25;3.47;;;2.73;;
4601;SDS011;2313;48.552;9.370;2022-07-05T01:01:55;2.70;;;2.23;;
4601;SDS011;2313;48.552;9.370;2022-07-05T01:04:20;4.60;;;2.53;;
4601;SDS011;2313;48.552;9.370;2022-07-05T01:06:47;2.57;;;1.97;;
4601;SDS011;2313;48.552;9.370;2022-07-05T01:09:14;4.40;;;2.70;;
4601;SDS011;2313;48.552;9.370;2022-07-05T01:11:44;2.50;;;2.30;;
4601;SDS011;2313;48.552;9.370;2022-07-05T01:14:15;3.60;;;2.27;;
4601;SDS011;2313;48.552;9.370;2022-07-05T01:16:42;2.90;;;2.63;;
4601;SDS011;2313;48.552;9.370;2022-07-05T01:19:09;2.83;;;2.40;;
4601;SDS011;2313;48.552;9.370;2022-07-05T01:21:40;3.30;;;2.50;;
4601;SDS011;2313;48.552;9.370;2022-07-05T01:24:08;2.90;;;2.60;;
4601;SDS011;2313;48.552;9.370;2022-07-05T01:26:37;2.83;;;2.27;;
4601;SDS011;2313;48.552;9.370;2022-07-05T01:29:03;4.70;;;2.20;;
4601;SDS011;2313;48.552;9.370;2022-07-05T01:31:29;2.90;;;2.70;;
4601;SDS011;2313;48.552;9.370;2022-07-05T01:33:55;6.43;;;2.90;;
4601;SDS011;2313;48.552;9.370;2022-07-05T01:36:21;3.83;;;2.90;;
4601;SDS011;2313;48.552;9.370;2022-07-05T01:38:47;2.73;;;2.53;;
4601;SDS011;2313;48.552;9.370;2022-07-05T01:41:13;3.70;;;3.13;;
4601;SDS011;2313;48.552;9.370;2022-07-05T01:43:39;3.20;;;3.00;;
4601;SDS011;2313;48.552;9.370;2022-07-05T01:46:05;2.73;;;2.53;;
4601;SDS011;2313;48.552;9.370;2022-07-05T01:48:33;2.60;;;2.20;;
4601;SDS011;2313;48.552;9.370;2022-07-05T01:51:01;3.63;;;3.00;;
4601;SDS011;2313;48.552;9.370;2022-07-05T01:53:31;4.83;;;3.07;;
4601;SDS011;2313;48.552;9.370;2022-07-05T01:55:58;2.90;;;2.57;;
4601;SDS011;2313;48.552;9.370;2022-07-05T01:58:25;4.37;;;2.83;;
4601;SDS011;2313;48.552;9.370;2022-07-05T02:00:52;5.77;;;3.00;;
4601;SDS011;2313;48.552;9.370;2022-07-05T02:03:19;3.63;;;2.53;;
4601;SDS011;2313;48.552;9.370;2022-07-05T02:05:46;2.90;;;2.40;;
4601;SDS011;2313;48.552;9.370;2022-07-05T02:08:12;4.27;;;2.57;;
4601;SDS011;2313;48.552;9.370;2022-07-05T02:10:39;4.77;;;3.30;;
4601;SDS011;2313;48.552;9.370;2022-07-05T02:13:05;3.77;;;2.70;;
4601;SDS011;2313;48.552;9.370;2022-07-05T02:15:32;3.27;;;2.47;;
4601;SDS011;2313;48.552;9.370;2022-07-05T02:18:02;3.03;;;2.83;;
4601;SDS011;2313;48.552;9.370;2022-07-05T02:20:29;6.00;;;3.00;;
4601;SDS011;2313;48.552;9.370;2022-07-05T02:22:56;3.13;;;2.60;;
4601;SDS011;2313;48.552;9.370;2022-07-05T02:25:22;4.70;;;2.53;;
4601;SDS011;2313;48.552;9.370;2022-07-05T02:27:49;4.93;;;2.90;;
4601;SDS011;2313;48.552;9.370;2022-07-05T02:30:15;2.60;;;2.40;;
4601;SDS011;2313;48.552;9.370;2022-07-05T02:32:41;3.17;;;2.87;;
4601;SDS011;2313;48.552;9.370;2022-07-05T02:35:08;2.60;;;2.40;;
4601;SDS011;2313;48.552;9.370;2022-07-05T02:37:35;4.00;;;2.80;;
4601;SDS011;2313;48.552;9.370;2022-07-05T02:40:01;2.30;;;2.10;;
4601;SDS011;2313;48.552;9.370;2022-07-05T02:42:27;2.80;;;2.60;;
4601;SDS011;2313;48.552;9.370;2022-07-05T02:44:53;3.30;;;2.90;;
4601;SDS011;2313;48.552;9.370;2022-07-05T02:47:19;2.60;;;2.40;;
4601;SDS011;2313;48.552;9.370;2022-07-05T02:49:44;3.20;;;2.90;;
4601;SDS011;2313;48.552;9.370;2022-07-05T02:52:10;3.73;;;3.17;;
4601;SDS011;2313;48.552;9.370;2022-07-05T02:54:36;4.03;;;2.47;;
4601;SDS011;2313;48.552;9.370;2022-07-05T02:57:02;3.30;;;3.03;;
4601;SDS011;2313;48.552;9.370;2022-07-05T02:59:28;3.50;;;2.90;;
4601;SDS011;2313;48.552;9.370;2022-07-05T03:01:55;4.13;;;2.93;;
4601;SDS011;2313;48.552;9.370;2022-07-05T03:04:21;2.70;;;2.50;;
4601;SDS011;2313;48.552;9.370;2022-07-05T03:06:46;2.70;;;2.50;;
4601;SDS011;2313;48.552;9.370;2022-07-05T03:09:12;3.80;;;3.10;;
4601;SDS011;2313;48.552;9.370;2022-07-05T03:11:38;4.70;;;2.80;;
4601;SDS011;2313;48.552;9.370;2022-07-05T03:14:03;3.27;;;2.97;;
4601;SDS011;2313;48.552;9.370;2022-07-05T03:16:29;6.10;;;2.87;;
4601;SDS011;2313;48.552;9.370;2022-07-05T03:18:55;4.30;;;3.10;;
4601;SDS011;2313;48.552;9.370;2022-07-05T03:21:20;4.90;;;3.10;;
4601;SDS011;2313;48.552;9.370;2022-07-05T03:23:46;3.60;;;2.77;;
4601;SDS011;2313;48.552;9.370;2022-07-05T03:26:12;7.07;;;3.10;;
4601;SDS011;2313;48.552;9.370;2022-07-05T03:28:38;3.10;;;2.73;;
4601;SDS011;2313;48.552;9.370;2022-07-05T03:31:04;8.40;;;3.20;;
4601;SDS011;2313;48.552;9.370;2022-07-05T03:33:30;7.33;;;3.17;;
4601;SDS011;2313;48.552;9.370;2022-07-05T03:35:56;5.40;;;4.07;;
4601;SDS011;2313;48.552;9.370;2022-07-05T03:38:22;4.60;;;3.00;;
4601;SDS011;2313;48.552;9.370;2022-07-05T03:40:48;3.83;;;3.40;;
4601;SDS011;2313;48.552;9.370;2022-07-05T03:43:13;4.70;;;3.20;;
4601;SDS011;2313;48.552;9.370;2022-07-05T03:45:39;9.13;;;2.93;;
4601;SDS011;2313;48.552;9.370;2022-07-05T03:48:05;3.20;;;2.90;;
4601;SDS011;2313;48.552;9.370;2022-07-05T03:50:30;3.37;;;2.80;;
4601;SDS011;2313;48.552;9.370;2022-07-05T03:52:56;3.40;;;3.10;;
4601;SDS011;2313;48.552;9.370;2022-07-05T03:55:22;3.20;;;2.93;;
4601;SDS011;2313;48.552;9.370;2022-07-05T03:57:47;4.57;;;3.07;;
4601;SDS011;2313;48.552;9.370;2022-07-05T04:00:13;4.87;;;3.60;;
4601;SDS011;2313;48.552;9.370;2022-07-05T04:02:39;3.37;;;2.90;;
4601;SDS011;2313;48.552;9.370;2022-07-05T04:05:05;3.90;;;2.83;;
4601;SDS011;2313;48.552;9.370;2022-07-05T04:07:31;2.87;;;2.63;;
4601;SDS011;2313;48.552;9.370;2022-07-05T04:09:58;3.90;;;3.10;;
4601;SDS011;2313;48.552;9.370;2022-07-05T04:12:23;2.90;;;2.70;;
4601;SDS011;2313;48.552;9.370;2022-07-05T04:14:49;6.13;;;3.13;;
4601;SDS011;2313;48.552;9.370;2022-07-05T04:17:15;3.00;;;2.80;;
4601;SDS011;2313;48.552;9.370;2022-07-05T04:19:40;3.33;;;3.03;;
4601;SDS011;2313;48.552;9.370;2022-07-05T04:22:06;4.50;;;2.60;;
4601;SDS011;2313;48.552;9.370;2022-07-05T04:24:32;3.40;;;2.30;;
4601;SDS011;2313;48.552;9.370;2022-07-05T04:27:17;10.97;;;2.20;;
4601;SDS011;2313;48.552;9.370;2022-07-05T04:29:43;5.97;;;2.50;;
4601;SDS011;2313;48.552;9.370;2022-07-05T04:32:08;2.63;;;2.30;;
4601;SDS011;2313;48.552;9.370;2022-07-05T04:34:34;3.20;;;2.30;;
4601;SDS011;2313;48.552;9.370;2022-07-05T04:37:00;7.80;;;2.50;;
4601;SDS011;2313;48.552;9.370;2022-07-05T04:39:25;3.93;;;2.50;;
4601;SDS011;2313;48.552;9.370;2022-07-05T04:41:51;3.13;;;2.27;;
4601;SDS011;2313;48.552;9.370;2022-07-05T04:44:16;2.70;;;2.20;;
4601;SDS011;2313;48.552;9.370;2022-07-05T04:46:42;5.43;;;3.07;;
4601;SDS011;2313;48.552;9.370;2022-07-05T04:49:08;2.60;;;2.40;;
4601;SDS011;2313;48.552;9.370;2022-07-05T04:51:33;2.70;;;2.50;;
4601;SDS011;2313;48.552;9.370;2022-07-05T04:53:59;2.40;;;2.20;;
4601;SDS011;2313;48.552;9.370;2022-07-05T04:56:24;4.57;;;2.67;;
4601;SDS011;2313;48.552;9.370;2022-07-05T04:58:50;4.43;;;2.47;;
4601;SDS011;2313;48.552;9.370;2022-07-05T05:01:18;4.27;;;2.60;;
4601;SDS011;2313;48.552;9.370;2022-07-05T05:03:44;6.60;;;3.00;;
4601;SDS011;2313;48.552;9.370;2022-07-05T05:06:10;5.40;;;2.50;;
4601;SDS011;2313;48.552;9.370;2022-07-05T05:08:35;6.13;;;2.40;;
4601;SDS011;2313;48.552;9.370;2022-07-05T05:11:01;3.43;;;2.93;;
4601;SDS011;2313;48.552;9.370;2022-07-05T05:13:26;4.40;;;2.00;;
4601;SDS011;2313;48.552;9.370;2022-07-05T05:15:52;2.27;;;2.07;;
4601;SDS011;2313;48.552;9.370;2022-07-05T05:18:18;2.97;;;2.23;;
4601;SDS011;2313;48.552;9.370;2022-07-05T05:20:46;2.23;;;1.97;;
4601;SDS011;2313;48.552;9.370;2022-07-05T05:23:11;4.10;;;2.40;;
4601;SDS011;2313;48.552;9.370;2022-07-05T05:25:37;5.37;;;2.27;;
4601;SDS011;2313;48.552;9.370;2022-07-05T05:28:03;3.03;;;2.70;;
4601;SDS011;2313;48.552;9.370;2022-07-05T05:30:29;6.23;;;2.80;;
4601;SDS011;2313;48.552;9.370;2022-07-05T05:32:54;3.27;;;2.70;;
4601;SDS011;2313;48.552;9.370;2022-07-05T05:35:20;4.57;;;2.60;;
4601;SDS011;2313;48.552;9.370;2022-07-05T05:37:53;3.73;;;2.43;;
4601;SDS011;2313;48.552;9.370;2022-07-05T05:40:21;6.37;;;2.60;;
4601;SDS011;2313;48.552;9.370;2022-07-05T05:42:47;3.67;;;2.07;;
4601;SDS011;2313;48.552;9.370;2022-07-05T05:45:13;4.57;;;2.63;;
4601;SDS011;2313;48.552;9.370;2022-07-05T05:47:53;5.93;;;3.10;;
4601;SDS011;2313;48.552;9.370;2022-07-05T05:52:50;6.97;;;1.90;;
4601;SDS011;2313;48.552;9.370;2022-07-05T05:55:16;4.10;;;1.90;;
4601;SDS011;2313;48.552;9.370;2022-07-05T05:57:42;7.90;;;1.90;;
4601;SDS011;2313;48.552;9.370;2022-07-05T06:00:08;2.17;;;1.70;;
4601;SDS011;2313;48.552;9.370;2022-07-05T06:02:35;4.40;;;1.73;;
4601;SDS011;2313;48.552;9.370;2022-07-05T06:05:00;3.90;;;1.43;;
4601;SDS011;2313;48.552;9.370;2022-07-05T06:07:26;3.70;;;1.60;;
4601;SDS011;2313;48.552;9.370;2022-07-05T06:09:52;4.20;;;1.80;;
4601;SDS011;2313;48.552;9.370;2022-07-05T06:12:18;4.37;;;1.93;;
4601;SDS011;2313;48.552;9.370;2022-07-05T06:14:43;11.03;;;2.20;;
4601;SDS011;2313;48.552;9.370;2022-07-05T06:17:09;8.13;;;2.10;;
4601;SDS011;2313;48.552;9.370;2022-07-05T06:19:34;4.43;;;1.90;;
4601;SDS011;2313;48.552;9.370;2022-07-05T06:22:00;2.43;;;1.77;;
4601;SDS011;2313;48.552;9.370;2022-07-05T06:24:26;3.30;;;2.10;;
4601;SDS011;2313;48.552;9.370;2022-07-05T06:26:51;4.83;;;1.47;;
4601;SDS011;2313;48.552;9.370;2022-07-05T06:29:17;6.73;;;1.70;;
4601;SDS011;2313;48.552;9.370;2022-07-05T06:31:43;5.17;;;1.50;;
4601;SDS011;2313;48.552;9.370;2022-07-05T06:34:08;5.47;;;1.87;;
4601;SDS011;2313;48.552;9.370;2022-07-05T06:36:34;1.73;;;1.63;;
4601;SDS011;2313;48.552;9.370;2022-07-05T06:38:59;4.27;;;2.00;;
4601;SDS011;2313;48.552;9.370;2022-07-05T06:41:26;8.53;;;1.73;;
4601;SDS011;2313;48.552;9.370;2022-07-05T06:43:51;3.73;;;1.90;;
4601;SDS011;2313;48.552;9.370;2022-07-05T06:46:17;2.80;;;1.40;;
4601;SDS011;2313;48.552;9.370;2022-07-05T06:48:42;2.03;;;1.60;;
4601;SDS011;2313;48.552;9.370;2022-07-05T06:51:08;2.60;;;1.50;;
4601;SDS011;2313;48.552;9.370;2022-07-05T06:53:34;3.63;;;1.50;;
4601;SDS011;2313;48.552;9.370;2022-07-05T06:55:59;2.27;;;1.50;;
4601;SDS011;2313;48.552;9.370;2022-07-05T06:58:25;3.30;;;1.40;;
4601;SDS011;2313;48.552;9.370;2022-07-05T07:00:51;3.07;;;1.70;;
4601;SDS011;2313;48.552;9.370;2022-07-05T07:03:16;1.60;;;1.50;;
4601;SDS011;2313;48.552;9.370;2022-07-05T07:05:42;3.50;;;1.47;;
4601;SDS011;2313;48.552;9.370;2022-07-05T07:08:08;3.70;;;2.23;;
4601;SDS011;2313;48.552;9.370;2022-07-05T07:10:52;3.67;;;1.77;;
4601;SDS011;2313;48.552;9.370;2022-07-05T07:13:18;1.67;;;1.23;;
4601;SDS011;2313;48.552;9.370;2022-07-05T07:15:44;3.53;;;1.97;;
4601;SDS011;2313;48.552;9.370;2022-07-05T07:18:12;1.63;;;1.37;;
4601;SDS011;2313;48.552;9.370;2022-07-05T07:20:39;1.80;;;1.47;;
4601;SDS011;2313;48.552;9.370;2022-07-05T07:23:04;1.70;;;1.60;;
4601;SDS011;2313;48.552;9.370;2022-07-05T07:25:30;2.30;;;1.70;;
4601;SDS011;2313;48.552;9.370;2022-07-05T07:27:56;1.73;;;1.20;;
4601;SDS011;2313;48.552;9.370;2022-07-05T07:30:23;1.40;;;1.30;;
4601;SDS011;2313;48.552;9.370;2022-07-05T07:32:52;2.60;;;1.80;;
4601;SDS011;2313;48.552;9.370;2022-07-05T07:35:18;2.73;;;1.67;;
4601;SDS011;2313;48.552;9.370;2022-07-05T07:37:45;9.97;;;1.77;;
4601;SDS011;2313;48.552;9.370;2022-07-05T07:40:11;2.10;;;1.60;;
4601;SDS011;2313;48.552;9.370;2022-07-05T07:42:37;1.93;;;1.37;;
4601;SDS011;2313;48.552;9.370;2022-07-05T07:45:04;5.47;;;1.93;;
4601;SDS011;2313;48.552;9.370;2022-07-05T07:47:31;1.30;;;1.20;;
4601;SDS011;2313;48.552;9.370;2022-07-05T07:49:57;3.13;;;1.43;;
4601;SDS011;2313;48.552;9.370;2022-07-05T07:52:23;1.70;;;1.37;;
4601;SDS011;2313;48.552;9.370;2022-07-05T07:54:49;1.97;;;1.50;;
4601;SDS011;2313;48.552;9.370;2022-07-05T07:57:17;1.50;;;1.40;;
4601;SDS011;2313;48.552;9.370;2022-07-05T07:59:43;4.00;;;1.80;;
4601;SDS011;2313;48.552;9.370;2022-07-05T08:02:09;2.97;;;1.80;;
4601;SDS011;2313;48.552;9.370;2022-07-05T08:04:35;3.87;;;2.07;;
4601;SDS011;2313;48.552;9.370;2022-07-05T08:07:01;3.27;;;1.97;;
4601;SDS011;2313;48.552;9.370;2022-07-05T08:09:28;1.47;;;1.13;;
4601;SDS011;2313;48.552;9.370;2022-07-05T08:11:54;5.73;;;2.00;;
4601;SDS011;2313;48.552;9.370;2022-07-05T08:14:20;2.80;;;1.83;;
4601;SDS011;2313;48.552;9.370;2022-07-05T08:16:46;2.97;;;1.53;;
4601;SDS011;2313;48.552;9.370;2022-07-05T08:19:13;5.90;;;1.93;;
4601;SDS011;2313;48.552;9.370;2022-07-05T08:21:57;6.80;;;2.30;;
4601;SDS011;2313;48.552;9.370;2022-07-05T08:24:23;1.83;;;1.50;;
4601;SDS011;2313;48.552;9.370;2022-07-05T08:26:48;5.70;;;2.20;;
4601;SDS011;2313;48.552;9.370;2022-07-05T08:29:14;2.20;;;1.83;;
4601;SDS011;2313;48.552;9.370;2022-07-05T08:31:42;3.27;;;1.90;;
4601;SDS011;2313;48.552;9.370;2022-07-05T08:34:10;4.50;;;2.50;;
4601;SDS011;2313;48.552;9.370;2022-07-05T08:36:37;4.03;;;1.67;;
4601;SDS011;2313;48.552;9.370;2022-07-05T08:39:05;4.50;;;1.97;;
4601;SDS011;2313;48.552;9.370;2022-07-05T08:41:32;3.77;;;1.20;;
4601;SDS011;2313;48.552;9.370;2022-07-05T08:44:00;11.17;;;1.57;;
4601;SDS011;2313;48.552;9.370;2022-07-05T08:46:27;3.87;;;1.43;;
4601;SDS011;2313;48.552;9.370;2022-07-05T08:48:55;3.27;;;1.93;;
4601;SDS011;2313;48.552;9.370;2022-07-05T08:51:24;6.63;;;1.70;;
4601;SDS011;2313;48.552;9.370;2022-07-05T08:53:52;2.17;;;1.47;;
4601;SDS011;2313;48.552;9.370;2022-07-05T08:56:20;9.27;;;1.70;;
4601;SDS011;2313;48.552;9.370;2022-07-05T08:58:46;6.10;;;1.63;;
4601;SDS011;2313;48.552;9.370;2022-07-05T09:01:14;2.50;;;1.70;;
4601;SDS011;2313;48.552;9.370;2022-07-05T09:03:44;3.97;;;1.40;;
4601;SDS011;2313;48.552;9.370;2022-07-05T09:06:13;6.60;;;1.80;;
4601;SDS011;2313;48.552;9.370;2022-07-05T09:08:41;7.37;;;1.90;;
4601;SDS011;2313;48.552;9.370;2022-07-05T09:11:08;4.23;;;1.80;;
4601;SDS011;2313;48.552;9.370;2022-07-05T09:13:36;3.10;;;2.17;;
4601;SDS011;2313;48.552;9.370;2022-07-05T09:16:03;3.23;;;1.53;;
4601;SDS011;2313;48.552;9.370;2022-07-05T09:18:43;1.33;;;1.20;;
4601;SDS011;2313;48.552;9.370;2022-07-05T09:21:21;4.00;;;1.80;;
4601;SDS011;2313;48.552;9.370;2022-07-05T09:26:35;4.20;;;1.50;;
4601;SDS011;2313;48.552;9.370;2022-07-05T09:29:02;3.33;;;1.70;;
4601;SDS011;2313;48.552;9.370;2022-07-05T09:31:37;1.90;;;1.60;;
4601;SDS011;2313;48.552;9.370;2022-07-05T09:34:14;3.73;;;1.40;;
4601;SDS011;2313;48.552;9.370;2022-07-05T09:42:20;4.50;;;1.50;;
4601;SDS011;2313;48.552;9.370;2022-07-05T09:44:52;2.90;;;1.60;;
4601;SDS011;2313;48.552;9.370;2022-07-05T09:47:23;2.93;;;1.57;;
4601;SDS011;2313;48.552;9.370;2022-07-05T09:49:56;3.77;;;1.70;;
4601;SDS011;2313;48.552;9.370;2022-07-05T09:52:32;3.67;;;1.20;;
4601;SDS011;2313;48.552;9.370;2022-07-05T09:57:31;3.07;;;1.47;;
4601;SDS011;2313;48.552;9.370;2022-07-05T10:00:05;3.33;;;1.50;;
4601;SDS011;2313;48.552;9.370;2022-07-05T10:05:28;1.93;;;1.40;;
4601;SDS011;2313;48.552;9.370;2022-07-05T10:07:57;2.60;;;1.37;;
4601;SDS011;2313;48.552;9.370;2022-07-05T10:10:24;7.90;;;1.50;;
4601;SDS011;2313;48.552;9.370;2022-07-05T10:12:53;1.30;;;1.20;;
4601;SDS011;2313;48.552;9.370;2022-07-05T10:15:25;4.87;;;1.50;;
4601;SDS011;2313;48.552;9.370;2022-07-05T10:20:25;11.50;;;1.47;;
4601;SDS011;2313;48.552;9.370;2022-07-05T10:23:17;8.23;;;1.10;;
4601;SDS011;2313;48.552;9.370;2022-07-05T10:25:44;2.27;;;1.30;;
4601;SDS011;2313;48.552;9.370;2022-07-05T10:28:15;5.40;;;1.50;;
4601;SDS011;2313;48.552;9.370;2022-07-05T10:30:43;6.20;;;1.00;;
4601;SDS011;2313;48.552;9.370;2022-07-05T10:33:11;3.90;;;1.17;;
4601;SDS011;2313;48.552;9.370;2022-07-05T10:35:42;6.10;;;1.07;;
4601;SDS011;2313;48.552;9.370;2022-07-05T10:38:08;2.33;;;1.30;;
4601;SDS011;2313;48.552;9.370;2022-07-05T10:40:35;2.27;;;1.30;;
4601;SDS011;2313;48.552;9.370;2022-07-05T10:43:02;2.80;;;1.17;;
4601;SDS011;2313;48.552;9.370;2022-07-05T10:45:32;3.03;;;1.40;;
4601;SDS011;2313;48.552;9.370;2022-07-05T10:53:15;1.00;;;0.90;;
4601;SDS011;2313;48.552;9.370;2022-07-05T10:55:57;2.23;;;1.00;;
4601;SDS011;2313;48.552;9.370;2022-07-05T10:58:43;1.30;;;0.80;;
4601;SDS011;2313;48.552;9.370;2022-07-05T11:11:40;3.40;;;1.00;;
4601;SDS011;2313;48.552;9.370;2022-07-05T11:16:45;2.70;;;1.20;;
4601;SDS011;2313;48.552;9.370;2022-07-05T11:19:12;1.57;;;1.10;;
4601;SDS011;2313;48.552;9.370;2022-07-05T11:24:34;4.10;;;1.20;;
4601;SDS011;2313;48.552;9.370;2022-07-05T11:27:04;4.27;;;1.90;;
4601;SDS011;2313;48.552;9.370;2022-07-05T11:29:51;2.40;;;1.10;;
4601;SDS011;2313;48.552;9.370;2022-07-05T11:34:56;7.93;;;1.57;;
4601;SDS011;2313;48.552;9.370;2022-07-05T11:37:36;3.77;;;1.80;;
4601;SDS011;2313;48.552;9.370;2022-07-05T11:42:47;1.53;;;0.80;;
4601;SDS011;2313;48.552;9.370;2022-07-05T11:45:14;1.53;;;1.10;;
4601;SDS011;2313;48.552;9.370;2022-07-05T11:47:41;4.57;;;1.67;;
4601;SDS011;2313;48.552;9.370;2022-07-05T11:50:07;2.30;;;1.30;;
4601;SDS011;2313;48.552;9.370;2022-07-05T11:52:35;3.17;;;1.07;;
4601;SDS011;2313;48.552;9.370;2022-07-05T11:55:10;4.27;;;1.17;;
4601;SDS011;2313;48.552;9.370;2022-07-05T11:57:37;2.17;;;1.10;;
4601;SDS011;2313;48.552;9.370;2022-07-05T12:00:12;1.83;;;0.93;;
4601;SDS011;2313;48.552;9.370;2022-07-05T12:02:44;4.23;;;1.07;;
4601;SDS011;2313;48.552;9.370;2022-07-05T12:05:10;0.90;;;0.70;;
4601;SDS011;2313;48.552;9.370;2022-07-05T12:07:47;3.30;;;1.00;;
4601;SDS011;2313;48.552;9.370;2022-07-05T12:10:17;5.47;;;0.93;;
4601;SDS011;2313;48.552;9.370;2022-07-05T12:13:03;1.57;;;0.83;;
4601;SDS011;2313;48.552;9.370;2022-07-05T12:15:30;2.30;;;1.10;;
4601;SDS011;2313;48.552;9.370;2022-07-05T12:17:56;3.83;;;1.50;;
4601;SDS011;2313;48.552;9.370;2022-07-05T12:20:28;2.03;;;1.00;;
4601;SDS011;2313;48.552;9.370;2022-07-05T12:22:54;1.30;;;1.00;;
4601;SDS011;2313;48.552;9.370;2022-07-05T12:25:21;3.20;;;1.13;;
4601;SDS011;2313;48.552;9.370;2022-07-05T12:27:49;5.50;;;1.33;;
4601;SDS011;2313;48.552;9.370;2022-07-05T12:30:17;3.53;;;1.17;;
4601;SDS011;2313;48.552;9.370;2022-07-05T12:32:56;1.43;;;1.00;;
4601;SDS011;2313;48.552;9.370;2022-07-05T12:35:26;3.37;;;1.00;;
4601;SDS011;2313;48.552;9.370;2022-07-05T12:38:06;1.30;;;0.83;;
4601;SDS011;2313;48.552;9.370;2022-07-05T12:40:36;2.20;;;1.13;;
4601;SDS011;2313;48.552;9.370;2022-07-05T12:43:13;3.10;;;1.00;;
4601;SDS011;2313;48.552;9.370;2022-07-05T12:45:41;1.97;;;1.20;;
4601;SDS011;2313;48.552;9.370;2022-07-05T12:48:09;3.10;;;1.30;;
4601;SDS011;2313;48.552;9.370;2022-07-05T12:50:51;2.60;;;1.10;;
4601;SDS011;2313;48.552;9.370;2022-07-05T12:53:18;1.57;;;1.00;;
4601;SDS011;2313;48.552;9.370;2022-07-05T12:56:03;2.70;;;0.90;;
4601;SDS011;2313;48.552;9.370;2022-07-05T13:01:23;3.67;;;1.60;;
4601;SDS011;2313;48.552;9.370;2022-07-05T13:03:57;1.00;;;0.90;;
4601;SDS011;2313;48.552;9.370;2022-07-05T13:07:09;4.77;;;1.20;;
4601;SDS011;2313;48.552;9.370;2022-07-05T13:14:41;1.63;;;0.90;;
4601;SDS011;2313;48.552;9.370;2022-07-05T13:17:11;2.47;;;1.00;;
4601;SDS011;2313;48.552;9.370;2022-07-05T13:19:38;2.50;;;0.90;;
4601;SDS011;2313;48.552;9.370;2022-07-05T13:22:05;2.60;;;0.77;;
4601;SDS011;2313;48.552;9.370;2022-07-05T13:24:32;1.10;;;0.70;;
4601;SDS011;2313;48.552;9.370;2022-07-05T13:26:58;1.77;;;0.90;;
4601;SDS011;2313;48.552;9.370;2022-07-05T13:29:24;1.37;;;0.90;;
4601;SDS011;2313;48.552;9.370;2022-07-05T13:31:50;1.30;;;1.17;;
4601;SDS011;2313;48.552;9.370;2022-07-05T13:34:16;1.77;;;0.87;;
4601;SDS011;2313;48.552;9.370;2022-07-05T13:36:42;2.53;;;0.87;;
4601;SDS011;2313;48.552;9.370;2022-07-05T13:39:08;1.50;;;1.20;;
4601;SDS011;2313;48.552;9.370;2022-07-05T13:41:33;3.93;;;1.17;;
4601;SDS011;2313;48.552;9.370;2022-07-05T13:43:59;1.50;;;0.80;;
4601;SDS011;2313;48.552;9.370;2022-07-05T13:46:26;1.50;;;1.00;;
4601;SDS011;2313;48.552;9.370;2022-07-05T13:48:52;5.90;;;0.87;;
4601;SDS011;2313;48.552;9.370;2022-07-05T13:51:18;6.67;;;1.00;;
4601;SDS011;2313;48.552;9.370;2022-07-05T13:53:47;5.67;;;1.10;;
4601;SDS011;2313;48.552;9.370;2022-07-05T13:56:14;1.20;;;1.10;;
4601;SDS011;2313;48.552;9.370;2022-07-05T13:58:39;1.30;;;0.83;;
4601;SDS011;2313;48.552;9.370;2022-07-05T14:01:05;3.33;;;1.00;;
4601;SDS011;2313;48.552;9.370;2022-07-05T14:03:31;2.23;;;1.30;;
4601;SDS011;2313;48.552;9.370;2022-07-05T14:05:57;2.33;;;0.90;;
4601;SDS011;2313;48.552;9.370;2022-07-05T14:08:23;3.20;;;0.87;;
4601;SDS011;2313;48.552;9.370;2022-07-05T14:13:17;3.17;;;0.80;;
4601;SDS011;2313;48.552;9.370;2022-07-05T14:15:44;3.00;;;1.00;;
4601;SDS011;2313;48.552;9.370;2022-07-05T14:18:11;1.80;;;0.87;;
4601;SDS011;2313;48.552;9.370;2022-07-05T14:20:37;2.73;;;1.27;;
4601;SDS011;2313;48.552;9.370;2022-07-05T14:23:02;2.37;;;1.07;;
4601;SDS011;2313;48.552;9.370;2022-07-05T14:25:28;2.20;;;0.83;;
4601;SDS011;2313;48.552;9.370;2022-07-05T14:27:54;2.10;;;1.40;;
4601;SDS011;2313;48.552;9.370;2022-07-05T14:30:20;1.50;;;0.90;;
4601;SDS011;2313;48.552;9.370;2022-07-05T14:32:48;2.20;;;1.00;;
4601;SDS011;2313;48.552;9.370;2022-07-05T14:35:14;4.33;;;1.20;;
4601;SDS011;2313;48.552;9.370;2022-07-05T14:37:40;2.87;;;0.93;;
4601;SDS011;2313;48.552;9.370;2022-07-05T14:40:06;2.00;;;0.80;;
4601;SDS011;2313;48.552;9.370;2022-07-05T14:42:32;1.10;;;1.00;;
4601;SDS011;2313;48.552;9.370;2022-07-05T14:44:58;3.20;;;0.93;;
4601;SDS011;2313;48.552;9.370;2022-07-05T14:47:24;5.03;;;1.30;;
4601;SDS011;2313;48.552;9.370;2022-07-05T14:49:51;2.03;;;1.27;;
4601;SDS011;2313;48.552;9.370;2022-07-05T14:52:18;1.20;;;0.80;;
4601;SDS011;2313;48.552;9.370;2022-07-05T14:54:45;2.03;;;1.00;;
4601;SDS011;2313;48.552;9.370;2022-07-05T14:57:11;3.80;;;1.00;;
4601;SDS011;2313;48.552;9.370;2022-07-05T14:59:37;1.30;;;1.00;;
4601;SDS011;2313;48.552;9.370;2022-07-05T15:02:03;4.10;;;0.90;;
4601;SDS011;2313;48.552;9.370;2022-07-05T15:04:31;3.77;;;1.07;;
4601;SDS011;2313;48.552;9.370;2022-07-05T15:06:57;2.10;;;1.10;;
4601;SDS011;2313;48.552;9.370;2022-07-05T15:09:22;2.20;;;0.90;;
4601;SDS011;2313;48.552;9.370;2022-07-05T15:11:48;2.73;;;1.03;;
4601;SDS011;2313;48.552;9.370;2022-07-05T15:14:14;3.73;;;0.80;;
4601;SDS011;2313;48.552;9.370;2022-07-05T15:16:40;4.63;;;1.20;;
4601;SDS011;2313;48.552;9.370;2022-07-05T15:19:06;1.77;;;1.23;;
4601;SDS011;2313;48.552;9.370;2022-07-05T15:21:33;4.23;;;1.10;;
4601;SDS011;2313;48.552;9.370;2022-07-05T15:23:58;5.33;;;1.20;;
4601;SDS011;2313;48.552;9.370;2022-07-05T15:26:24;2.07;;;1.00;;
4601;SDS011;2313;48.552;9.370;2022-07-05T15:28:55;4.03;;;1.20;;
4601;SDS011;2313;48.552;9.370;2022-07-05T15:31:31;3.43;;;1.10;;
4601;SDS011;2313;48.552;9.370;2022-07-05T15:33:58;2.57;;;0.97;;
4601;SDS011;2313;48.552;9.370;2022-07-05T15:36:24;4.20;;;1.00;;
4601;SDS011;2313;48.552;9.370;2022-07-05T15:38:51;2.50;;;1.10;;
4601;SDS011;2313;48.552;9.370;2022-07-05T15:41:17;1.40;;;1.20;;
4601;SDS011;2313;48.552;9.370;2022-07-05T15:43:42;2.37;;;1.00;;
4601;SDS011;2313;48.552;9.370;2022-07-05T15:46:08;1.93;;;1.60;;
4601;SDS011;2313;48.552;9.370;2022-07-05T15:48:34;1.13;;;0.90;;
4601;SDS011;2313;48.552;9.370;2022-07-05T15:51:00;2.13;;;1.00;;
4601;SDS011;2313;48.552;9.370;2022-07-05T15:53:28;1.43;;;1.07;;
4601;SDS011;2313;48.552;9.370;2022-07-05T15:55:54;4.70;;;1.80;;
4601;SDS011;2313;48.552;9.370;2022-07-05T15:58:25;2.27;;;1.43;;
4601;SDS011;2313;48.552;9.370;2022-07-05T16:00:51;5.80;;;1.10;;
4601;SDS011;2313;48.552;9.370;2022-07-05T16:03:17;4.13;;;1.37;;
4601;SDS011;2313;48.552;9.370;2022-07-05T16:05:42;4.70;;;1.50;;
4601;SDS011;2313;48.552;9.370;2022-07-05T16:08:08;5.23;;;1.30;;
4601;SDS011;2313;48.552;9.370;2022-07-05T16:10:34;4.30;;;1.10;;
4601;SDS011;2313;48.552;9.370;2022-07-05T16:12:59;1.83;;;1.17;;